sensor_id;sensor_type;location;lat;lon;timestamp;pressure;altitude;pressure_sealevel;temperature;humidity
71392;BME280;59205;50.610;12.638;2022-09-03T00:01:02;95732.03;;;10.87;75.86
71392;BME280;59205;50.610;12.638;2022-09-03T00:03:38;95719.69;;;10.86;75.91
71392;BME280;59205;50.610;12.638;2022-09-03T00:08:43;95704.97;;;10.78;76.37
71392;BME280;59205;50.610;12.638;2022-09-03T00:14:12;95701.53;;;10.69;76.71
71392;BME280;59205;50.610;12.638;2022-09-03T00:16:45;95701.84;;;10.71;76.79
71392;BME280;59205;50.610;12.638;2022-09-03T00:19:16;95712.06;;;10.76;76.63
71392;BME280;59205;50.610;12.638;2022-09-03T00:21:56;95705.84;;;10.84;76.39
71392;BME280;59205;50.610;12.638;2022-09-03T00:24:28;95706.31;;;10.83;76.40
71392;BME280;59205;50.610;12.638;2022-09-03T00:26:58;95700.28;;;10.88;76.00
71392;BME280;59205;50.610;12.638;2022-09-03T00:29:32;95702.50;;;10.89;76.09
71392;BME280;59205;50.610;12.638;2022-09-03T00:32:06;95705.56;;;10.82;76.76
71392;BME280;59205;50.610;12.638;2022-09-03T00:34:40;95694.44;;;10.80;76.42
71392;BME280;59205;50.610;12.638;2022-09-03T00:37:08;95700.34;;;10.70;77.22
71392;BME280;59205;50.610;12.638;2022-09-03T00:39:35;95694.44;;;10.71;76.97
71392;BME280;59205;50.610;12.638;2022-09-03T00:42:38;95708.28;;;10.73;77.04
71392;BME280;59205;50.610;12.638;2022-09-03T00:45:12;95702.75;;;10.68;77.24
71392;BME280;59205;50.610;12.638;2022-09-03T00:56:01;95709.97;;;10.71;77.47
71392;BME280;59205;50.610;12.638;2022-09-03T01:01:12;95701.56;;;10.60;78.74
71392;BME280;59205;50.610;12.638;2022-09-03T01:04:42;95703.53;;;10.59;78.50
71392;BME280;59205;50.610;12.638;2022-09-03T01:19:50;95712.56;;;10.56;78.04
71392;BME280;59205;50.610;12.638;2022-09-03T01:30:19;95722.97;;;10.49;79.47
71392;BME280;59205;50.610;12.638;2022-09-03T01:33:08;95722.09;;;10.43;78.75
71392;BME280;59205;50.610;12.638;2022-09-03T01:35:46;95711.72;;;10.32;79.48
71392;BME280;59205;50.610;12.638;2022-09-03T01:38:48;95717.72;;;10.27;79.64
71392;BME280;59205;50.610;12.638;2022-09-03T01:41:52;95713.03;;;10.37;79.65
71392;BME280;59205;50.610;12.638;2022-09-03T01:52:45;95715.91;;;10.42;80.70
71392;BME280;59205;50.610;12.638;2022-09-03T02:00:24;95703.13;;;10.34;81.30
71392;BME280;59205;50.610;12.638;2022-09-03T02:02:52;95704.03;;;10.31;80.58
71392;BME280;59205;50.610;12.638;2022-09-03T02:05:23;95707.47;;;10.31;81.33
71392;BME280;59205;50.610;12.638;2022-09-03T02:10:52;95710.09;;;10.08;82.20
71392;BME280;59205;50.610;12.638;2022-09-03T02:15:49;95711.09;;;9.84;82.59
71392;BME280;59205;50.610;12.638;2022-09-03T02:18:19;95712.19;;;10.13;82.21
71392;BME280;59205;50.610;12.638;2022-09-03T02:20:48;95700.72;;;9.91;81.99
71392;BME280;59205;50.610;12.638;2022-09-03T02:23:15;95701.78;;;9.76;83.02
71392;BME280;59205;50.610;12.638;2022-09-03T02:25:44;95705.69;;;9.84;82.30
71392;BME280;59205;50.610;12.638;2022-09-03T02:28:12;95703.59;;;9.79;83.00
71392;BME280;59205;50.610;12.638;2022-09-03T02:30:39;95709.75;;;9.97;83.73
71392;BME280;59205;50.610;12.638;2022-09-03T02:33:05;95709.44;;;9.95;83.26
71392;BME280;59205;50.610;12.638;2022-09-03T02:35:30;95706.72;;;9.77;82.86
71392;BME280;59205;50.610;12.638;2022-09-03T02:37:56;95704.34;;;10.15;82.21
71392;BME280;59205;50.610;12.638;2022-09-03T02:40:21;95699.06;;;9.85;82.66
71392;BME280;59205;50.610;12.638;2022-09-03T02:42:47;95697.72;;;9.89;83.27
71392;BME280;59205;50.610;12.638;2022-09-03T02:45:28;95705.56;;;9.87;83.20
71392;BME280;59205;50.610;12.638;2022-09-03T02:47:56;95701.31;;;9.95;83.34
71392;BME280;59205;50.610;12.638;2022-09-03T02:50:23;95703.44;;;10.00;83.18
71392;BME280;59205;50.610;12.638;2022-09-03T02:52:50;95705.41;;;9.91;83.68
71392;BME280;59205;50.610;12.638;2022-09-03T02:55:16;95706.63;;;9.90;82.83
71392;BME280;59205;50.610;12.638;2022-09-03T02:57:41;95702.97;;;9.66;83.53
71392;BME280;59205;50.610;12.638;2022-09-03T03:00:07;95701.00;;;9.48;84.32
71392;BME280;59205;50.610;12.638;2022-09-03T03:02:33;95697.88;;;9.77;83.98
71392;BME280;59205;50.610;12.638;2022-09-03T03:04:58;95696.69;;;9.78;82.87
71392;BME280;59205;50.610;12.638;2022-09-03T03:07:24;95702.53;;;9.67;82.78
71392;BME280;59205;50.610;12.638;2022-09-03T03:09:51;95700.88;;;9.79;82.37
71392;BME280;59205;50.610;12.638;2022-09-03T03:12:16;95694.28;;;9.71;82.55
71392;BME280;59205;50.610;12.638;2022-09-03T03:14:42;95696.22;;;9.79;82.09
71392;BME280;59205;50.610;12.638;2022-09-03T03:17:08;95695.63;;;9.93;81.21
71392;BME280;59205;50.610;12.638;2022-09-03T03:19:33;95692.16;;;9.93;80.86
71392;BME280;59205;50.610;12.638;2022-09-03T03:21:58;95693.69;;;10.03;80.58
71392;BME280;59205;50.610;12.638;2022-09-03T03:24:24;95696.97;;;10.33;81.24
71392;BME280;59205;50.610;12.638;2022-09-03T03:26:49;95690.66;;;10.10;80.42
71392;BME280;59205;50.610;12.638;2022-09-03T03:29:16;95686.59;;;9.87;81.25
71392;BME280;59205;50.610;12.638;2022-09-03T03:31:42;95690.81;;;9.88;81.18
71392;BME280;59205;50.610;12.638;2022-09-03T03:34:08;95682.22;;;10.25;80.70
71392;BME280;59205;50.610;12.638;2022-09-03T03:36:34;95683.88;;;9.96;80.84
71392;BME280;59205;50.610;12.638;2022-09-03T03:39:01;95679.84;;;10.10;81.29
71392;BME280;59205;50.610;12.638;2022-09-03T03:41:29;95680.13;;;9.85;81.42
71392;BME280;59205;50.610;12.638;2022-09-03T03:44:00;95684.94;;;9.81;81.36
71392;BME280;59205;50.610;12.638;2022-09-03T03:46:32;95692.94;;;10.11;81.31
71392;BME280;59205;50.610;12.638;2022-09-03T03:48:58;95690.06;;;9.97;82.02
71392;BME280;59205;50.610;12.638;2022-09-03T03:51:24;95688.84;;;9.89;82.30
71392;BME280;59205;50.610;12.638;2022-09-03T03:53:53;95688.38;;;9.99;80.52
71392;BME280;59205;50.610;12.638;2022-09-03T03:56:19;95681.19;;;10.14;81.70
71392;BME280;59205;50.610;12.638;2022-09-03T03:58:45;95685.41;;;9.88;81.39
71392;BME280;59205;50.610;12.638;2022-09-03T04:01:13;95682.84;;;9.76;81.36
71392;BME280;59205;50.610;12.638;2022-09-03T04:03:40;95681.03;;;10.00;80.41
71392;BME280;59205;50.610;12.638;2022-09-03T04:06:10;95681.59;;;10.39;79.54
71392;BME280;59205;50.610;12.638;2022-09-03T04:08:37;95681.19;;;9.78;81.10
71392;BME280;59205;50.610;12.638;2022-09-03T04:11:06;95678.03;;;9.98;80.08
71392;BME280;59205;50.610;12.638;2022-09-03T04:13:37;95683.91;;;9.87;80.14
71392;BME280;59205;50.610;12.638;2022-09-03T04:16:37;95676.84;;;9.90;79.70
71392;BME280;59205;50.610;12.638;2022-09-03T04:18:57;95684.94;;;9.99;79.57
71392;BME280;59205;50.610;12.638;2022-09-03T04:21:25;95678.63;;;9.93;79.77
71392;BME280;59205;50.610;12.638;2022-09-03T04:23:52;95680.00;;;9.79;80.75
71392;BME280;59205;50.610;12.638;2022-09-03T04:26:20;95680.75;;;10.07;80.51
71392;BME280;59205;50.610;12.638;2022-09-03T04:28:46;95681.03;;;10.00;81.30
71392;BME280;59205;50.610;12.638;2022-09-03T04:31:14;95682.25;;;9.72;81.59
71392;BME280;59205;50.610;12.638;2022-09-03T04:33:40;95676.06;;;9.98;79.69
71392;BME280;59205;50.610;12.638;2022-09-03T04:36:17;95677.56;;;10.17;78.91
71392;BME280;59205;50.610;12.638;2022-09-03T04:38:45;95675.31;;;10.07;78.88
71392;BME280;59205;50.610;12.638;2022-09-03T04:41:13;95673.09;;;10.05;78.89
71392;BME280;59205;50.610;12.638;2022-09-03T04:43:40;95674.88;;;10.17;78.47
71392;BME280;59205;50.610;12.638;2022-09-03T04:46:10;95678.19;;;10.21;77.73
71392;BME280;59205;50.610;12.638;2022-09-03T04:48:36;95666.13;;;10.31;77.34
71392;BME280;59205;50.610;12.638;2022-09-03T04:51:10;95676.81;;;10.34;77.18
71392;BME280;59205;50.610;12.638;2022-09-03T04:53:41;95671.06;;;10.41;77.14
71392;BME280;59205;50.610;12.638;2022-09-03T04:56:18;95668.94;;;10.54;77.42
71392;BME280;59205;50.610;12.638;2022-09-03T04:58:44;95675.22;;;10.60;76.08
71392;BME280;59205;50.610;12.638;2022-09-03T05:01:20;95673.97;;;10.70;75.35
71392;BME280;59205;50.610;12.638;2022-09-03T05:03:47;95670.06;;;10.71;75.61
71392;BME280;59205;50.610;12.638;2022-09-03T05:06:13;95674.59;;;10.74;75.70
71392;BME280;59205;50.610;12.638;2022-09-03T05:08:41;95674.09;;;10.85;75.36
71392;BME280;59205;50.610;12.638;2022-09-03T05:11:08;95679.50;;;10.85;74.97
71392;BME280;59205;50.610;12.638;2022-09-03T05:13:34;95684.41;;;10.95;74.62
71392;BME280;59205;50.610;12.638;2022-09-03T05:16:02;95682.75;;;10.98;75.43
71392;BME280;59205;50.610;12.638;2022-09-03T05:18:28;95688.47;;;11.00;75.13
71392;BME280;59205;50.610;12.638;2022-09-03T05:21:05;95689.53;;;11.26;74.46
71392;BME280;59205;50.610;12.638;2022-09-03T05:23:34;95681.91;;;11.15;73.87
71392;BME280;59205;50.610;12.638;2022-09-03T05:26:02;95687.94;;;11.19;74.55
71392;BME280;59205;50.610;12.638;2022-09-03T05:28:30;95688.81;;;11.16;73.93
71392;BME280;59205;50.610;12.638;2022-09-03T05:30:59;95692.72;;;11.24;73.17
71392;BME280;59205;50.610;12.638;2022-09-03T05:33:27;95690.22;;;11.35;72.42
71392;BME280;59205;50.610;12.638;2022-09-03T05:36:14;95694.28;;;11.40;73.28
71392;BME280;59205;50.610;12.638;2022-09-03T05:38:38;95687.22;;;11.33;75.39
71392;BME280;59205;50.610;12.638;2022-09-03T05:41:06;95687.69;;;11.55;73.31
71392;BME280;59205;50.610;12.638;2022-09-03T05:43:33;95694.66;;;11.56;72.46
71392;BME280;59205;50.610;12.638;2022-09-03T05:46:04;95694.31;;;11.63;72.03
71392;BME280;59205;50.610;12.638;2022-09-03T05:48:31;95697.03;;;11.63;71.39
71392;BME280;59205;50.610;12.638;2022-09-03T05:51:02;95692.47;;;11.69;71.23
71392;BME280;59205;50.610;12.638;2022-09-03T05:53:29;95703.53;;;11.80;71.45
71392;BME280;59205;50.610;12.638;2022-09-03T05:56:09;95695.94;;;12.07;70.28
71392;BME280;59205;50.610;12.638;2022-09-03T05:58:40;95700.47;;;12.25;68.43
71392;BME280;59205;50.610;12.638;2022-09-03T06:01:11;95700.38;;;12.34;68.74
71392;BME280;59205;50.610;12.638;2022-09-03T06:03:37;95701.41;;;12.51;68.11
71392;BME280;59205;50.610;12.638;2022-09-03T06:06:03;95703.31;;;12.59;67.59
71392;BME280;59205;50.610;12.638;2022-09-03T06:08:29;95702.75;;;12.55;66.61
71392;BME280;59205;50.610;12.638;2022-09-03T06:11:01;95696.91;;;12.77;65.71
71392;BME280;59205;50.610;12.638;2022-09-03T06:13:30;95699.19;;;12.93;66.98
71392;BME280;59205;50.610;12.638;2022-09-03T06:15:58;95702.22;;;12.86;67.10
71392;BME280;59205;50.610;12.638;2022-09-03T06:18:27;95700.69;;;12.94;68.13
71392;BME280;59205;50.610;12.638;2022-09-03T06:20:57;95709.63;;;13.14;65.43
71392;BME280;59205;50.610;12.638;2022-09-03T06:23:22;95705.81;;;13.41;65.03
71392;BME280;59205;50.610;12.638;2022-09-03T06:25:59;95704.47;;;13.51;65.79
71392;BME280;59205;50.610;12.638;2022-09-03T06:28:24;95709.13;;;13.84;63.44
71392;BME280;59205;50.610;12.638;2022-09-03T06:30:51;95712.03;;;14.66;60.29
71392;BME280;59205;50.610;12.638;2022-09-03T06:33:17;95715.59;;;15.09;59.23
71392;BME280;59205;50.610;12.638;2022-09-03T06:35:43;95705.84;;;14.71;60.19
71392;BME280;59205;50.610;12.638;2022-09-03T06:38:08;95711.16;;;14.80;59.61
71392;BME280;59205;50.610;12.638;2022-09-03T06:40:37;95708.63;;;15.02;61.39
71392;BME280;59205;50.610;12.638;2022-09-03T06:43:02;95709.28;;;14.97;60.82
71392;BME280;59205;50.610;12.638;2022-09-03T06:45:31;95709.97;;;15.18;59.08
71392;BME280;59205;50.610;12.638;2022-09-03T06:47:56;95705.06;;;14.96;61.52
71392;BME280;59205;50.610;12.638;2022-09-03T06:50:22;95705.78;;;15.22;58.28
71392;BME280;59205;50.610;12.638;2022-09-03T06:52:51;95707.38;;;15.34;59.49
71392;BME280;59205;50.610;12.638;2022-09-03T06:55:22;95707.16;;;15.38;59.13
71392;BME280;59205;50.610;12.638;2022-09-03T06:57:47;95703.31;;;15.60;56.94
71392;BME280;59205;50.610;12.638;2022-09-03T07:00:14;95697.38;;;15.67;58.03
71392;BME280;59205;50.610;12.638;2022-09-03T07:02:39;95701.09;;;14.97;60.18
71392;BME280;59205;50.610;12.638;2022-09-03T07:05:06;95692.25;;;15.08;58.20
71392;BME280;59205;50.610;12.638;2022-09-03T07:07:32;95701.56;;;14.90;62.28
71392;BME280;59205;50.610;12.638;2022-09-03T07:09:57;95696.34;;;14.61;63.45
71392;BME280;59205;50.610;12.638;2022-09-03T07:12:23;95702.66;;;15.04;60.93
71392;BME280;59205;50.610;12.638;2022-09-03T07:14:48;95697.25;;;15.09;61.05
71392;BME280;59205;50.610;12.638;2022-09-03T07:17:15;95694.59;;;15.56;59.54
71392;BME280;59205;50.610;12.638;2022-09-03T07:19:40;95696.75;;;16.80;56.13
71392;BME280;59205;50.610;12.638;2022-09-03T07:22:05;95699.97;;;17.22;54.52
71392;BME280;59205;50.610;12.638;2022-09-03T07:24:32;95688.00;;;17.58;52.39
71392;BME280;59205;50.610;12.638;2022-09-03T07:26:57;95688.19;;;16.29;57.97
71392;BME280;59205;50.610;12.638;2022-09-03T07:29:23;95700.22;;;16.75;55.92
71392;BME280;59205;50.610;12.638;2022-09-03T07:31:50;95696.00;;;17.45;53.86
71392;BME280;59205;50.610;12.638;2022-09-03T07:34:15;95699.22;;;17.22;52.49
71392;BME280;59205;50.610;12.638;2022-09-03T07:36:43;95696.97;;;16.55;55.32
71392;BME280;59205;50.610;12.638;2022-09-03T07:39:11;95697.19;;;16.40;54.07
71392;BME280;59205;50.610;12.638;2022-09-03T07:41:37;95690.22;;;16.45;54.11
71392;BME280;59205;50.610;12.638;2022-09-03T07:44:03;95695.50;;;17.36;51.29
71392;BME280;59205;50.610;12.638;2022-09-03T07:46:33;95690.88;;;19.20;46.35
71392;BME280;59205;50.610;12.638;2022-09-03T07:48:59;95690.72;;;19.90;45.06
71392;BME280;59205;50.610;12.638;2022-09-03T07:51:35;95688.16;;;20.16;44.95
71392;BME280;59205;50.610;12.638;2022-09-03T07:54:03;95696.13;;;21.37;41.70
71392;BME280;59205;50.610;12.638;2022-09-03T07:56:31;95696.84;;;22.21;40.13
71392;BME280;59205;50.610;12.638;2022-09-03T07:58:57;95705.16;;;21.38;39.65
71392;BME280;59205;50.610;12.638;2022-09-03T08:01:25;95702.22;;;21.49;40.22
71392;BME280;59205;50.610;12.638;2022-09-03T08:03:53;95701.00;;;21.63;40.62
71392;BME280;59205;50.610;12.638;2022-09-03T08:06:21;95706.19;;;22.44;38.44
71392;BME280;59205;50.610;12.638;2022-09-03T08:08:47;95697.94;;;21.35;41.70
71392;BME280;59205;50.610;12.638;2022-09-03T08:11:14;95695.38;;;21.68;39.94
71392;BME280;59205;50.610;12.638;2022-09-03T08:13:42;95696.56;;;21.28;41.54
71392;BME280;59205;50.610;12.638;2022-09-03T08:16:10;95699.63;;;22.08;40.84
71392;BME280;59205;50.610;12.638;2022-09-03T08:18:36;95702.59;;;23.36;38.06
71392;BME280;59205;50.610;12.638;2022-09-03T08:21:08;95699.00;;;22.02;39.43
71392;BME280;59205;50.610;12.638;2022-09-03T08:23:38;95690.72;;;22.02;39.03
71392;BME280;59205;50.610;12.638;2022-09-03T08:26:04;95694.13;;;21.95;38.17
71392;BME280;59205;50.610;12.638;2022-09-03T08:28:30;95689.59;;;22.90;38.46
71392;BME280;59205;50.610;12.638;2022-09-03T08:31:08;95700.16;;;23.12;37.75
71392;BME280;59205;50.610;12.638;2022-09-03T08:33:44;95699.59;;;24.03;36.85
71392;BME280;59205;50.610;12.638;2022-09-03T08:36:19;95682.38;;;23.08;36.82
71392;BME280;59205;50.610;12.638;2022-09-03T08:38:47;95682.50;;;25.05;33.56
71392;BME280;59205;50.610;12.638;2022-09-03T08:41:16;95689.28;;;24.04;35.94
71392;BME280;59205;50.610;12.638;2022-09-03T08:43:55;95685.03;;;24.03;36.30
71392;BME280;59205;50.610;12.638;2022-09-03T08:46:32;95686.88;;;24.08;36.30
71392;BME280;59205;50.610;12.638;2022-09-03T08:49:03;95685.06;;;21.69;40.24
71392;BME280;59205;50.610;12.638;2022-09-03T08:51:30;95683.53;;;21.29;40.73
71392;BME280;59205;50.610;12.638;2022-09-03T08:53:59;95683.34;;;20.22;42.45
71392;BME280;59205;50.610;12.638;2022-09-03T08:56:27;95684.22;;;19.87;44.58
71392;BME280;59205;50.610;12.638;2022-09-03T08:58:54;95681.84;;;20.58;42.98
71392;BME280;59205;50.610;12.638;2022-09-03T09:01:42;95693.91;;;19.94;46.26
71392;BME280;59205;50.610;12.638;2022-09-03T09:04:38;95684.56;;;21.83;41.56
71392;BME280;59205;50.610;12.638;2022-09-03T09:07:29;95682.69;;;22.63;39.30
71392;BME280;59205;50.610;12.638;2022-09-03T09:10:11;95679.00;;;23.02;37.09
71392;BME280;59205;50.610;12.638;2022-09-03T09:15:10;95681.69;;;24.82;35.43
71392;BME280;59205;50.610;12.638;2022-09-03T09:20:48;95678.72;;;24.73;33.15
71392;BME280;59205;50.610;12.638;2022-09-03T09:23:29;95678.94;;;24.40;33.69
71392;BME280;59205;50.610;12.638;2022-09-03T09:25:56;95675.59;;;24.91;32.67
71392;BME280;59205;50.610;12.638;2022-09-03T09:28:29;95672.47;;;24.95;33.60
71392;BME280;59205;50.610;12.638;2022-09-03T09:30:57;95674.47;;;23.73;35.28
71392;BME280;59205;50.610;12.638;2022-09-03T09:33:23;95672.69;;;25.04;33.70
71392;BME280;59205;50.610;12.638;2022-09-03T09:35:49;95666.63;;;25.21;33.83
71392;BME280;59205;50.610;12.638;2022-09-03T09:38:29;95671.06;;;25.31;32.10
71392;BME280;59205;50.610;12.638;2022-09-03T09:40:55;95657.78;;;24.57;34.83
71392;BME280;59205;50.610;12.638;2022-09-03T09:43:22;95663.50;;;25.32;32.90
71392;BME280;59205;50.610;12.638;2022-09-03T09:45:50;95669.78;;;25.47;31.43
71392;BME280;59205;50.610;12.638;2022-09-03T09:48:30;95655.34;;;23.55;36.06
71392;BME280;59205;50.610;12.638;2022-09-03T09:51:05;95656.88;;;26.34;30.48
71392;BME280;59205;50.610;12.638;2022-09-03T09:53:31;95651.97;;;25.95;32.27
71392;BME280;59205;50.610;12.638;2022-09-03T09:55:57;95657.00;;;25.22;31.87
71392;BME280;59205;50.610;12.638;2022-09-03T09:58:25;95646.25;;;25.11;33.40
71392;BME280;59205;50.610;12.638;2022-09-03T10:00:57;95661.47;;;25.47;32.32
71392;BME280;59205;50.610;12.638;2022-09-03T10:03:24;95660.44;;;27.79;28.40
71392;BME280;59205;50.610;12.638;2022-09-03T10:06:03;95656.16;;;27.05;29.56
71392;BME280;59205;50.610;12.638;2022-09-03T10:08:49;95655.06;;;24.79;33.59
71392;BME280;59205;50.610;12.638;2022-09-03T10:11:16;95663.25;;;25.00;32.86
71392;BME280;59205;50.610;12.638;2022-09-03T10:13:44;95661.28;;;23.87;34.55
71392;BME280;59205;50.610;12.638;2022-09-03T10:16:21;95656.22;;;22.88;36.64
71392;BME280;59205;50.610;12.638;2022-09-03T10:21:21;95649.69;;;24.24;36.88
71392;BME280;59205;50.610;12.638;2022-09-03T10:26:28;95648.97;;;24.31;36.66
71392;BME280;59205;50.610;12.638;2022-09-03T10:29:00;95655.03;;;27.81;27.41
71392;BME280;59205;50.610;12.638;2022-09-03T10:31:53;95652.69;;;27.70;27.91
71392;BME280;59205;50.610;12.638;2022-09-03T10:34:33;95642.44;;;26.75;29.37
71392;BME280;59205;50.610;12.638;2022-09-03T10:50:47;95635.16;;;24.45;35.87
71392;BME280;59205;50.610;12.638;2022-09-03T10:56:14;95639.59;;;25.59;32.47
71392;BME280;59205;50.610;12.638;2022-09-03T11:07:00;95631.72;;;23.82;34.95
71392;BME280;59205;50.610;12.638;2022-09-03T11:09:39;95627.69;;;24.26;35.04
71392;BME280;59205;50.610;12.638;2022-09-03T11:12:20;95625.63;;;26.11;31.27
71392;BME280;59205;50.610;12.638;2022-09-03T11:15:22;95626.38;;;27.64;27.59
71392;BME280;59205;50.610;12.638;2022-09-03T11:20:41;95615.38;;;26.28;32.97
71392;BME280;59205;50.610;12.638;2022-09-03T11:23:08;95612.75;;;27.51;29.27
71392;BME280;59205;50.610;12.638;2022-09-03T11:25:42;95604.50;;;27.19;28.22
71392;BME280;59205;50.610;12.638;2022-09-03T11:34:27;95592.41;;;25.51;33.52
71392;BME280;59205;50.610;12.638;2022-09-03T11:41:58;95590.69;;;24.51;32.96
71392;BME280;59205;50.610;12.638;2022-09-03T11:44:38;95591.13;;;25.15;30.50
71392;BME280;59205;50.610;12.638;2022-09-03T11:47:22;95589.28;;;25.25;30.45
71392;BME280;59205;50.610;12.638;2022-09-03T11:49:50;95590.78;;;25.33;31.25
71392;BME280;59205;50.610;12.638;2022-09-03T11:52:27;95596.75;;;26.46;30.75
71392;BME280;59205;50.610;12.638;2022-09-03T11:54:53;95599.03;;;24.73;32.82
71392;BME280;59205;50.610;12.638;2022-09-03T11:59:51;95603.84;;;27.28;28.36
71392;BME280;59205;50.610;12.638;2022-09-03T12:02:34;95589.97;;;26.71;29.61
71392;BME280;59205;50.610;12.638;2022-09-03T12:07:55;95593.78;;;24.47;33.66
71392;BME280;59205;50.610;12.638;2022-09-03T12:11:09;95579.59;;;26.25;29.69
71392;BME280;59205;50.610;12.638;2022-09-03T12:17:01;95578.75;;;27.77;28.00
71392;BME280;59205;50.610;12.638;2022-09-03T12:19:44;95582.41;;;26.89;29.13
71392;BME280;59205;50.610;12.638;2022-09-03T12:22:14;95579.78;;;25.73;30.19
71392;BME280;59205;50.610;12.638;2022-09-03T12:24:40;95568.47;;;26.32;32.34
71392;BME280;59205;50.610;12.638;2022-09-03T12:27:10;95574.44;;;24.62;32.61
71392;BME280;59205;50.610;12.638;2022-09-03T12:29:36;95580.06;;;25.22;32.69
71392;BME280;59205;50.610;12.638;2022-09-03T12:32:10;95576.81;;;25.71;32.29
71392;BME280;59205;50.610;12.638;2022-09-03T12:34:37;95571.66;;;25.75;33.19
71392;BME280;59205;50.610;12.638;2022-09-03T12:37:03;95576.97;;;25.80;32.45
71392;BME280;59205;50.610;12.638;2022-09-03T12:39:48;95573.06;;;26.37;29.92
71392;BME280;59205;50.610;12.638;2022-09-03T12:42:23;95562.38;;;26.66;29.91
71392;BME280;59205;50.610;12.638;2022-09-03T12:44:49;95577.97;;;26.22;30.83
71392;BME280;59205;50.610;12.638;2022-09-03T12:47:16;95570.91;;;24.62;34.56
71392;BME280;59205;50.610;12.638;2022-09-03T12:49:44;95577.03;;;24.60;34.14
71392;BME280;59205;50.610;12.638;2022-09-03T12:52:19;95572.84;;;24.32;34.70
71392;BME280;59205;50.610;12.638;2022-09-03T12:54:51;95563.47;;;24.49;37.14
71392;BME280;59205;50.610;12.638;2022-09-03T12:57:21;95569.69;;;25.00;36.15
71392;BME280;59205;50.610;12.638;2022-09-03T12:59:51;95566.97;;;24.35;37.00
71392;BME280;59205;50.610;12.638;2022-09-03T13:02:26;95567.72;;;23.57;39.04
71392;BME280;59205;50.610;12.638;2022-09-03T13:04:53;95558.25;;;24.24;33.79
71392;BME280;59205;50.610;12.638;2022-09-03T13:07:31;95553.25;;;24.15;33.51
71392;BME280;59205;50.610;12.638;2022-09-03T13:10:05;95552.47;;;24.87;32.50
71392;BME280;59205;50.610;12.638;2022-09-03T13:12:50;95552.06;;;23.60;38.90
71392;BME280;59205;50.610;12.638;2022-09-03T13:15:21;95557.88;;;23.21;41.43
71392;BME280;59205;50.610;12.638;2022-09-03T13:18:12;95558.69;;;23.92;36.65
71392;BME280;59205;50.610;12.638;2022-09-03T13:23:38;95547.47;;;23.70;34.19
71392;BME280;59205;50.610;12.638;2022-09-03T13:31:45;95547.03;;;23.86;34.34
71392;BME280;59205;50.610;12.638;2022-09-03T13:34:21;95536.78;;;23.10;35.62
71392;BME280;59205;50.610;12.638;2022-09-03T13:36:54;95540.06;;;22.61;36.41
71392;BME280;59205;50.610;12.638;2022-09-03T13:39:45;95544.03;;;21.85;36.78
71392;BME280;59205;50.610;12.638;2022-09-03T13:45:04;95553.59;;;22.51;35.88
71392;BME280;59205;50.610;12.638;2022-09-03T13:47:38;95534.88;;;22.03;38.72
71392;BME280;59205;50.610;12.638;2022-09-03T13:50:27;95535.41;;;22.22;38.85
71392;BME280;59205;50.610;12.638;2022-09-03T13:53:05;95536.75;;;22.62;36.40
71392;BME280;59205;50.610;12.638;2022-09-03T13:55:47;95531.22;;;21.75;39.55
71392;BME280;59205;50.610;12.638;2022-09-03T13:58:29;95537.91;;;21.66;38.72
71392;BME280;59205;50.610;12.638;2022-09-03T14:16:52;95522.19;;;21.74;38.12
71392;BME280;59205;50.610;12.638;2022-09-03T14:19:41;95525.81;;;21.69;38.67
71392;BME280;59205;50.610;12.638;2022-09-03T14:22:17;95529.06;;;21.94;38.01
71392;BME280;59205;50.610;12.638;2022-09-03T14:24:52;95532.25;;;22.18;38.35
71392;BME280;59205;50.610;12.638;2022-09-03T14:27:30;95533.84;;;21.80;39.60
71392;BME280;59205;50.610;12.638;2022-09-03T14:30:01;95531.63;;;21.66;41.37
71392;BME280;59205;50.610;12.638;2022-09-03T14:32:39;95529.84;;;21.29;39.71
71392;BME280;59205;50.610;12.638;2022-09-03T14:40:29;95530.16;;;21.39;39.17
71392;BME280;59205;50.610;12.638;2022-09-03T14:43:25;95540.56;;;21.07;40.51
71392;BME280;59205;50.610;12.638;2022-09-03T14:51:44;95533.97;;;21.23;40.25
71392;BME280;59205;50.610;12.638;2022-09-03T14:57:20;95531.28;;;20.78;40.62
71392;BME280;59205;50.610;12.638;2022-09-03T15:00:27;95528.72;;;20.80;40.61
71392;BME280;59205;50.610;12.638;2022-09-03T15:09:20;95520.94;;;20.97;42.60
71392;BME280;59205;50.610;12.638;2022-09-03T15:11:54;95526.34;;;20.90;41.80
71392;BME280;59205;50.610;12.638;2022-09-03T15:14:56;95513.84;;;20.58;41.98
71392;BME280;59205;50.610;12.638;2022-09-03T15:17:44;95519.81;;;20.75;42.34
71392;BME280;59205;50.610;12.638;2022-09-03T15:35:57;95537.50;;;20.66;42.32
71392;BME280;59205;50.610;12.638;2022-09-03T15:39:05;95525.50;;;20.64;42.43
71392;BME280;59205;50.610;12.638;2022-09-03T15:44:51;95521.78;;;20.61;43.21
71392;BME280;59205;50.610;12.638;2022-09-03T15:50:22;95519.56;;;20.60;43.50
71392;BME280;59205;50.610;12.638;2022-09-03T15:53:35;95524.31;;;20.46;43.99
71392;BME280;59205;50.610;12.638;2022-09-03T15:56:39;95517.66;;;20.23;43.93
71392;BME280;59205;50.610;12.638;2022-09-03T15:59:57;95519.38;;;20.08;44.58
71392;BME280;59205;50.610;12.638;2022-09-03T16:09:07;95525.72;;;19.84;45.37
71392;BME280;59205;50.610;12.638;2022-09-03T16:15:16;95524.44;;;19.67;45.82
71392;BME280;59205;50.610;12.638;2022-09-03T16:24:18;95526.19;;;19.46;46.51
71392;BME280;59205;50.610;12.638;2022-09-03T16:33:50;95527.00;;;19.41;47.19
71392;BME280;59205;50.610;12.638;2022-09-03T16:37:08;95523.97;;;19.26;48.00
71392;BME280;59205;50.610;12.638;2022-09-03T16:40:19;95524.41;;;19.30;47.86
71392;BME280;59205;50.610;12.638;2022-09-03T17:06:29;95548.09;;;18.85;49.61
71392;BME280;59205;50.610;12.638;2022-09-03T17:09:31;95551.06;;;18.87;49.46